TUI1EW EDDM-GCFV
Flight info
| Callsign | TUI1EW |
|---|---|
| Flight time | N/A |
| Altitude | 33000 |
| Route | ALG2E/08R ALG Y109 UMTEX Y100 TRA DCT LUTIX DCT BENOT DCT NEMOS DCT NINTU DCT MEBAK DCT REPSI DCT LERGA DCT MINSO DCT NARAK DCT AGN DCT MAQAB/N0467F350 DCT TIVLI DCT ELSAP DCT ZAR DCT KONKE DCT TERSA DCT CJN DCT VTB DCT INPAN DCT CRISA DCT HIJ DCT SVL DCT CLANA DCT KORNO UN857 TERTO |
| Aircraft | B738/M-SDE2E3FGHIRWXY/LB1 |
Departure
| Time | 2026-05-04 11:35 |
|---|---|
| Airport | Munich Airport (EDDM) |
Arrival
| Time | N/A |
|---|---|
| Airport | Fuerteventura Airport (GCFV) |
| Time | Latitude | Longitude | Altitude | Speed | Heading |
|---|---|---|---|---|---|
| 2026-05-04 10:56 | 48.35089 | 11.77723 | 1470 ft | 0 kts | 263° |
| 2026-05-04 11:22 | 48.35094 | 11.77780 | 1465 ft | 2 kts | 263° |
| 2026-05-04 11:22 | 48.35098 | 11.77807 | 1461 ft | 3 kts | 233° |
| 2026-05-04 11:23 | 48.35111 | 11.77822 | 1462 ft | 3 kts | 185° |
| 2026-05-04 11:23 | 48.35128 | 11.77821 | 1468 ft | 1 kts | 173° |
| 2026-05-04 11:24 | 48.35134 | 11.77820 | 1460 ft | 0 kts | 173° |
| 2026-05-04 11:27 | 48.34780 | 11.77879 | 1466 ft | 9 kts | 173° |
| 2026-05-04 11:28 | 48.34718 | 11.77891 | 1470 ft | 9 kts | 173° |
| 2026-05-04 11:28 | 48.34665 | 11.77864 | 1465 ft | 9 kts | 237° |
| 2026-05-04 11:28 | 48.34652 | 11.77757 | 1462 ft | 13 kts | 263° |
| 2026-05-04 11:28 | 48.34641 | 11.77599 | 1470 ft | 17 kts | 263° |
| 2026-05-04 11:29 | 48.34625 | 11.77400 | 1468 ft | 21 kts | 263° |
| 2026-05-04 11:29 | 48.34607 | 11.77166 | 1466 ft | 23 kts | 263° |
| 2026-05-04 11:29 | 48.34590 | 11.76938 | 1470 ft | 22 kts | 264° |
| 2026-05-04 11:29 | 48.34573 | 11.76713 | 1470 ft | 21 kts | 263° |
| 2026-05-04 11:31 | 48.34434 | 11.75224 | 1466 ft | 12 kts | 206° |
| 2026-05-04 11:33 | 48.34086 | 11.75358 | 1484 ft | 0 kts | 84° |
| 2026-05-04 11:34 | 48.34102 | 11.75583 | 1482 ft | 54 kts | 83° |
| 2026-05-04 11:34 | 48.34172 | 11.76482 | 1479 ft | 117 kts | 83° |
| 2026-05-04 11:34 | 48.34295 | 11.77973 | 1478 ft | 168 kts | 81° |
| 2026-05-04 11:34 | 48.34461 | 11.79850 | 1871 ft | 186 kts | 82° |
| 2026-05-04 11:35 | 48.34611 | 11.81773 | 2723 ft | 187 kts | 83° |
| 2026-05-04 11:35 | 48.34743 | 11.83741 | 3487 ft | 190 kts | 86° |
| 2026-05-04 11:35 | 48.34855 | 11.85728 | 4303 ft | 191 kts | 84° |
| 2026-05-04 11:35 | 48.35010 | 11.87700 | 5189 ft | 189 kts | 84° |
| 2026-05-04 11:36 | 48.35161 | 11.89640 | 5896 ft | 197 kts | 86° |
| 2026-05-04 11:36 | 48.35317 | 11.91814 | 6104 ft | 220 kts | 85° |
| 2026-05-04 11:36 | 48.35430 | 11.94217 | 6294 ft | 240 kts | 98° |
| 2026-05-04 11:36 | 48.34758 | 11.96535 | 6583 ft | 250 kts | 134° |
| 2026-05-04 11:37 | 48.33420 | 11.98200 | 7248 ft | 251 kts | 144° |
| 2026-05-04 11:37 | 48.32022 | 11.99787 | 7981 ft | 251 kts | 144° |
| 2026-05-04 11:37 | 48.30621 | 12.01390 | 8682 ft | 255 kts | 145° |
| 2026-05-04 11:37 | 48.29044 | 12.02565 | 9403 ft | 254 kts | 169° |
| 2026-05-04 11:38 | 48.27267 | 12.02774 | 9902 ft | 265 kts | 182° |
| 2026-05-04 11:38 | 48.25366 | 12.02660 | 10280 ft | 279 kts | 184° |
| 2026-05-04 11:38 | 48.23413 | 12.02495 | 10921 ft | 281 kts | 184° |
| 2026-05-04 11:38 | 48.21466 | 12.02378 | 11677 ft | 282 kts | 183° |
| 2026-05-04 11:39 | 48.19488 | 12.02246 | 12296 ft | 286 kts | 184° |
| 2026-05-04 11:39 | 48.17493 | 12.02103 | 12946 ft | 288 kts | 184° |
| 2026-05-04 11:40 | 48.06761 | 11.97956 | 16331 ft | 304 kts | 238° |
| 2026-05-04 11:41 | 48.05947 | 11.95022 | 16917 ft | 308 kts | 252° |
| 2026-05-04 11:41 | 48.05407 | 11.91909 | 17492 ft | 311 kts | 254° |
| 2026-05-04 11:41 | 48.04907 | 11.88748 | 18067 ft | 315 kts | 255° |
| 2026-05-04 11:41 | 48.04401 | 11.85551 | 18580 ft | 318 kts | 255° |
| 2026-05-04 11:42 | 48.03876 | 11.82314 | 19054 ft | 321 kts | 254° |
| 2026-05-04 11:42 | 48.03340 | 11.79070 | 19586 ft | 322 kts | 254° |
| 2026-05-04 11:42 | 48.02794 | 11.75809 | 20078 ft | 325 kts | 254° |
| 2026-05-04 11:42 | 48.02239 | 11.72534 | 20573 ft | 327 kts | 254° |
| 2026-05-04 11:43 | 48.01675 | 11.69222 | 21082 ft | 330 kts | 254° |
| 2026-05-04 11:43 | 48.01141 | 11.65874 | 21568 ft | 333 kts | 258° |
| 2026-05-04 11:43 | 48.00864 | 11.62422 | 22042 ft | 336 kts | 263° |
| 2026-05-04 11:43 | 48.00720 | 11.58924 | 22491 ft | 339 kts | 265° |
| 2026-05-04 11:44 | 48.00602 | 11.55391 | 22952 ft | 342 kts | 265° |
| 2026-05-04 11:44 | 48.00478 | 11.51835 | 23406 ft | 344 kts | 265° |
| 2026-05-04 11:44 | 48.00339 | 11.48254 | 23832 ft | 346 kts | 264° |
| 2026-05-04 11:44 | 48.00186 | 11.44652 | 24262 ft | 347 kts | 264° |
| 2026-05-04 11:45 | 48.00024 | 11.41056 | 24669 ft | 349 kts | 264° |
| 2026-05-04 11:45 | 47.99856 | 11.37430 | 25071 ft | 350 kts | 264° |
| 2026-05-04 11:45 | 47.99683 | 11.33807 | 25479 ft | 351 kts | 264° |
| 2026-05-04 11:45 | 47.99509 | 11.30207 | 25854 ft | 353 kts | 264° |
| 2026-05-04 11:46 | 47.99331 | 11.26545 | 26204 ft | 355 kts | 264° |
| 2026-05-04 11:46 | 47.99151 | 11.22858 | 26569 ft | 357 kts | 264° |
| 2026-05-04 11:46 | 47.98968 | 11.19161 | 26949 ft | 358 kts | 264° |
| 2026-05-04 11:46 | 47.98784 | 11.15446 | 27312 ft | 359 kts | 264° |
| 2026-05-04 11:47 | 47.98598 | 11.11725 | 27648 ft | 361 kts | 264° |
| 2026-05-04 11:47 | 47.98409 | 11.07979 | 27999 ft | 363 kts | 264° |
| 2026-05-04 11:47 | 47.98222 | 11.04212 | 28339 ft | 364 kts | 265° |
| 2026-05-04 11:48 | 47.98260 | 10.96466 | 28516 ft | 382 kts | 270° |
| 2026-05-04 11:48 | 47.98506 | 10.88378 | 28704 ft | 398 kts | 270° |
| 2026-05-04 11:49 | 47.98723 | 10.80016 | 28849 ft | 412 kts | 270° |
| 2026-05-04 11:49 | 47.98908 | 10.71267 | 28994 ft | 426 kts | 270° |
| 2026-05-04 11:50 | 47.98976 | 10.67770 | 29059 ft | 431 kts | 270° |